Latest Weather Observations for Coonamble

IDN60801

Issued at 11:35 am EDT Sunday 26 October 2014 (issued every 30 minutes, with the page automatically refreshed every 10 minutes)

About weather observations | Map of weather stations | Latest weather observations for NSW | Other Formats
Station Details ID: 051161 Name: COONAMBLE AIRPORT AWS Lat: -30.98 Lon: 148.38 Height: 181.3 m
Data from the previous 72 hours. | See also: Recent months at Coonamble
Date/Time
EDT
Temp
°C
App
Temp
°C
Dew
Point
Rel
Hum
%
Delta-T
°C
Wind Press
QNH
hPa
Press
MSL
hPa
Rain
since 9 am
mm
Dir
 
Spd
km/h
Gust
km/h
Spd
kts
Gust
kts
26/11:30am 36.0 32.2 -0.4 10 18.1 W 9 20 5 11 1011.7 1011.1 0.0
26/11:00am 35.6 31.8 1.8 12 17.4 W 11 20 6 11 1012.1 1011.6 0.0
26/10:30am 34.3 30.5 1.9 13 16.6 NW 11 17 6 9 1012.2 1011.7 0.0
26/10:00am 33.4 29.1 1.3 13 16.2 N 13 20 7 11 1012.3 1011.8 0.0
26/09:30am 32.0 27.9 2.1 15 15.1 N 13 17 7 9 1012.4 1011.9 0.0
26/09:00am 30.0 25.8 1.5 16 14.1 NNE 13 20 7 11 1012.6 1012.1 0.0
26/08:30am 28.5 24.4 4.1 21 12.5 NNE 15 22 8 12 1012.6 1012.1 0.0
26/08:00am 25.4 21.9 5.6 28 10.2 NNE 13 15 7 8 1012.5 1012.0 0.0
26/07:30am 22.4 19.8 6.2 35 8.3 ENE 9 11 5 6 1012.5 1012.0 0.0
26/07:00am 19.3 17.2 6.8 44 6.3 E 7 9 4 5 1012.5 1012.0 0.0
26/06:30am 18.4 15.7 5.6 43 6.3 NE 9 9 5 5 1012.6 1012.1 0.0
26/06:00am 18.4 15.7 5.6 43 6.3 ENE 9 13 5 7 1012.4 1011.9 0.0
26/05:30am 19.7 17.2 4.6 37 7.4 ENE 7 7 4 4 1012.3 1011.8 0.0
26/05:00am 23.0 20.2 5.0 31 9.0 NNE 9 17 5 9 1012.1 1011.6 0.0
26/04:30am 22.7 19.3 4.2 30 9.1 NE 11 15 6 8 1011.9 1011.3 0.0
26/04:00am 25.8 21.4 4.9 26 10.7 NNE 17 19 9 10 1012.0 1011.5 0.0
26/03:30am 25.7 21.3 4.8 26 10.6 NNE 17 24 9 13 1011.9 1011.3 0.0
26/03:00am 25.4 21.7 6.1 29 10.0 NNE 15 19 8 10 1012.2 1011.7 0.0
26/02:47am 25.4 22.4 7.5 32 9.5 NE 13 19 7 10 1012.4 1011.9 0.0
26/02:30am 20.4 18.2 6.4 40 7.1 N 7 13 4 7 1012.7 1012.2 0.0
26/02:00am 22.6 20.8 7.2 37 8.0 ENE 6 9 3 5 1012.9 1012.4 0.0
26/01:30am 24.5 22.5 6.3 31 9.5 E 6 7 3 4 1013.3 1012.8 0.0
26/01:00am 26.3 22.2 6.3 28 10.5 NE 17 19 9 10 1013.2 1012.7 0.0
26/12:30am 25.5 22.2 6.2 29 10.1 E 13 15 7 8 1013.9 1013.4 0.0
26/12:00am 25.5 22.3 5.1 27 10.4 E 11 13 6 7 1014.0 1013.5 0.0
 
Date/Time
EDT
Temp
°C
App
Temp
°C
Dew
Point
Rel
Hum
%
Delta-T
°C
Wind Press
QNH
hPa
Press
MSL
hPa
Rain
since 9 am
mm
Dir
 
Spd
km/h
Gust
km/h
Spd
kts
Gust
kts
25/11:30pm 26.3 23.4 4.7 25 11.0 ENE 9 11 5 6 1014.1 1013.6 0.0
25/11:00pm 28.4 24.9 3.3 20 12.7 SSE 11 15 6 8 1014.1 1013.6 0.0
25/10:30pm 27.3 22.1 3.7 22 11.9 SW 20 26 11 14 1014.3 1013.8 0.0
25/10:00pm 24.5 21.9 3.2 25 10.5 NNW 6 7 3 4 1013.3 1012.8 0.0
25/09:30pm 25.3 22.3 2.1 22 11.2 NNW 7 9 4 5 1013.2 1012.7 0.0
25/09:00pm 28.9 25.2 2.2 18 13.3 N 11 13 6 7 1012.8 1012.3 0.0
25/08:30pm 27.2 23.8 1.6 19 12.4 NNW 9 9 5 5 1012.6 1012.1 0.0
25/08:00pm 28.3 24.2 0.1 16 13.4 NW 11 13 6 7 1012.5 1012.0 0.0
25/07:30pm 30.9 26.7 -0.7 13 15.1 NW 11 15 6 8 1012.3 1011.8 0.0
25/07:00pm 34.6 29.4 -2.9 9 17.8 WNW 15 20 8 11 1012.1 1011.6 0.0
25/06:30pm 36.2 30.6 -3.3 8 18.8 W 17 24 9 13 1011.9 1011.3 0.0
25/06:00pm 37.4 33.2 -4.2 7 19.7 SW 9 13 5 7 1011.7 1011.1 0.0
25/05:30pm 38.0 34.2 -3.7 7 20.0 SSE 7 13 4 7 1011.8 1011.2 0.0
25/05:00pm 37.8 32.5 -3.9 7 19.9 SW 15 22 8 12 1012.0 1011.5 0.0
25/04:30pm 38.4 33.5 -3.4 7 20.2 SW 13 24 7 13 1012.1 1011.6 0.0
25/04:00pm 37.7 33.7 -2.2 8 19.5 SW 9 19 5 10 1012.4 1011.9 0.0
25/03:30pm 37.8 31.5 -3.9 7 19.9 W 20 32 11 17 1012.9 1012.4 0.0
25/03:00pm 36.6 31.7 -3.0 8 19.0 SSE 13 22 7 12 1013.1 1012.6 0.0
25/02:30pm 37.7 33.3 -2.2 8 19.5 SSW 11 20 6 11 1013.7 1013.2 0.0
25/02:00pm 37.8 33.4 -2.1 8 19.6 ESE 11 17 6 9 1014.0 1013.5 0.0
25/01:30pm 37.2 33.8 -0.9 9 19.0 NW 7 20 4 11 1014.5 1014.0 0.0
25/01:00pm 36.6 33.1 -1.4 9 18.7 ENE 7 13 4 7 1015.0 1014.5 0.0
25/12:30pm 35.7 31.9 -0.6 10 18.0 N 9 17 5 9 1015.5 1015.0 0.0
25/12:00pm 36.1 32.7 -0.3 10 18.1 ESE 7 13 4 7 1015.9 1015.4 0.0
25/11:30am 34.4 29.9 -0.3 11 17.1 ENE 13 17 7 9 1016.4 1015.9 0.0
25/11:00am 33.5 28.9 1.3 13 16.2 ENE 15 24 8 13 1016.8 1016.4 0.0
25/10:30am 33.0 27.9 0.9 13 16.0 ENE 17 24 9 13 1016.9 1016.5 0.0
25/10:00am 31.4 26.3 4.2 18 14.2 ENE 20 30 11 16 1017.0 1016.6 0.0
25/09:30am 29.6 25.7 6.9 24 12.3 E 17 24 9 13 1017.1 1016.7 0.0
25/09:00am 28.2 24.9 8.0 28 11.0 E 15 20 8 11 1017.1 1016.7 0.0
25/08:30am 25.5 22.0 7.1 31 9.7 E 15 20 8 11 1017.0 1016.6 0.0
25/08:00am 22.9 18.7 5.8 33 8.7 E 17 22 9 12 1016.7 1016.3 0.0
25/07:30am 22.1 17.4 3.3 29 9.1 ESE 17 22 9 12 1016.4 1015.9 0.0
25/07:00am 20.9 17.3 4.9 35 7.9 SSE 13 17 7 9 1016.1 1015.6 0.0
25/06:30am 17.4 14.3 3.7 40 6.4 SSE 9 11 5 6 1015.8 1015.3 0.0
25/06:00am 18.5 14.6 3.6 37 7.0 S 13 15 7 8 1015.5 1015.0 0.0
25/05:30am 18.4 14.8 3.1 36 7.2 SSE 11 13 6 7 1015.3 1014.8 0.0
25/05:00am 18.1 14.7 3.9 39 6.7 S 11 13 6 7 1015.1 1014.6 0.0
25/04:30am 17.5 15.0 4.8 43 6.1 SSW 7 9 4 5 1015.0 1014.5 0.0
25/04:00am 18.6 16.0 4.4 39 6.8 SSW 7 9 4 5 1014.8 1014.3 0.0
25/03:30am 18.4 15.4 4.2 39 6.8 SW 9 9 5 5 1014.7 1014.2 0.0
25/03:00am 19.4 16.8 4.0 36 7.4 W 7 7 4 4 1014.7 1014.2 0.0
25/02:30am 19.5 16.9 4.0 36 7.5 W 7 9 4 5 1014.8 1014.3 0.0
25/02:00am 21.3 18.2 3.5 31 8.6 WSW 9 13 5 7 1014.9 1014.4 0.0
25/01:30am 22.0 18.9 3.6 30 8.9 WSW 9 11 5 6 1015.0 1014.5 0.0
25/01:00am 22.2 19.5 3.8 30 9.0 WSW 7 11 4 6 1015.0 1014.5 0.0
25/12:30am 23.9 20.3 2.7 25 10.3 W 11 13 6 7 1015.1 1014.6 0.0
25/12:00am 24.0 20.4 2.8 25 10.3 WNW 11 13 6 7 1015.1 1014.6 0.0
 
Date/Time
EDT
Temp
°C
App
Temp
°C
Dew
Point
Rel
Hum
%
Delta-T
°C
Wind Press
QNH
hPa
Press
MSL
hPa
Rain
since 9 am
mm
Dir
 
Spd
km/h
Gust
km/h
Spd
kts
Gust
kts
24/11:30pm 25.9 21.1 2.6 22 11.4 W 17 19 9 10 1015.1 1014.6 0.0
24/11:00pm 27.0 22.4 1.4 19 12.4 W 15 17 8 9 1014.9 1014.4 0.0
24/10:30pm 29.3 24.8 0.0 15 14.0 W 13 15 7 8 1014.7 1014.2 0.0
24/10:00pm 33.1 27.5 -2.6 10 16.8 WSW 17 28 9 15 1014.5 1014.0 0.0
24/09:37pm 34.2 25.5 -3.2 9 17.6 SW 33 63 18 34 1014.0 1013.5 0.0
24/09:30pm 33.9 26.3 -2.0 10 17.2 SSW 28 41 15 22 1014.2 1013.7 0.0
24/09:00pm 32.4 26.0 -1.8 11 16.2 SW 22 30 12 16 1013.8 1013.3 0.0
24/08:30pm 31.7 25.3 -5.0 9 16.4 WSW 20 28 11 15 1013.5 1013.0 0.0
24/08:00pm 29.3 24.8 -3.0 12 14.7 WSW 11 13 6 7 1012.7 1012.2 0.0
24/07:30pm 30.4 25.5 -3.3 11 15.4 W 13 15 7 8 1012.2 1011.7 0.0
24/07:00pm 34.2 29.0 -6.5 7 18.1 W 13 17 7 9 1011.8 1011.2 0.0
24/06:30pm 35.6 29.7 -5.5 7 18.8 W 17 22 9 12 1011.5 1011.0 0.0
24/06:00pm 36.6 30.2 -1.4 9 18.7 NW 22 30 12 16 1010.9 1010.4 0.0
24/05:30pm 36.8 31.0 -1.2 9 18.8 NNW 19 24 10 13 1011.0 1010.5 0.0
24/05:00pm 37.0 30.9 -2.7 8 19.2 NW 20 32 11 17 1011.3 1010.8 0.0
24/04:30pm 37.6 30.4 0.8 10 18.8 NW 28 35 15 19 1011.5 1011.0 0.0
24/04:00pm 37.2 31.7 0.5 10 18.7 NNW 19 28 10 15 1012.3 1011.8 0.0
24/03:30pm 36.4 29.5 2.4 12 17.7 NNW 28 39 15 21 1012.9 1012.4 0.0
24/03:00pm 36.6 30.5 2.6 12 17.8 NNW 24 37 13 20 1013.4 1012.9 0.0
24/02:30pm 36.3 30.5 4.6 14 17.1 N 24 35 13 19 1014.0 1013.5 0.0
24/02:00pm 35.3 29.2 4.8 15 16.4 N 26 46 14 25 1014.6 1014.1 0.0
24/01:30pm 35.1 29.1 5.5 16 16.1 N 26 39 14 21 1015.3 1014.8 0.0
24/01:16pm 33.9 27.5 5.4 17 15.4 N 28 46 15 25 1015.5 1015.0 0.0
24/01:00pm 33.9 27.7 6.3 18 15.1 N 28 39 15 21 1015.9 1015.4 0.0
24/12:30pm 34.1 28.5 7.2 19 14.9 N 26 37 14 20 1016.5 1016.0 0.0
24/12:00pm 33.2 28.3 8.6 22 13.9 N 24 43 13 23 1017.1 1016.7 0.0
24/11:30am 32.0 26.5 7.6 22 13.5 N 26 35 14 19 1017.7 1017.2 0.0
24/11:00am 30.8 26.1 9.1 26 12.2 NNE 24 37 13 20 1018.2 1017.7 0.0
24/10:30am 29.0 24.5 8.7 28 11.3 NNE 22 32 12 17 1018.8 1018.3 0.0
24/10:00am 27.7 23.4 9.5 32 10.1 NE 22 33 12 18 1019.0 1018.5 0.0
24/09:30am 27.1 22.6 9.9 34 9.6 NNE 24 32 13 17 1019.2 1018.7 0.0
24/09:00am 25.9 22.0 9.3 35 9.1 NE 20 32 11 17 1019.2 1018.7 0.0
24/08:30am 24.4 20.6 9.9 40 8.0 NE 20 26 11 14 1019.2 1018.7 0.0
24/08:00am 22.6 19.2 10.4 46 6.7 ENE 19 26 10 14 1019.1 1018.6 0.0
24/07:30am 20.2 17.9 10.6 54 5.3 NE 13 17 7 9 1018.9 1018.4 0.0
24/07:00am 20.2 17.9 10.3 53 5.4 NE 13 17 7 9 1018.4 1017.9 0.0
24/06:30am 20.0 17.2 10.1 53 5.4 ENE 15 20 8 11 1018.1 1017.6 0.0
24/06:00am 19.8 17.4 10.2 54 5.2 E 13 17 7 9 1017.9 1017.4 0.0
24/05:30am 19.7 17.2 9.6 52 5.4 ENE 13 17 7 9 1017.7 1017.2 0.0
24/05:00am 20.1 17.1 9.4 50 5.7 NE 15 19 8 10 1017.4 1016.9 0.0
24/04:30am 20.6 17.7 9.5 49 6.0 E 15 19 8 10 1017.4 1016.9 0.0
24/04:00am 20.3 18.1 9.2 49 5.9 ENE 11 13 6 7 1017.1 1016.7 0.0
24/03:30am 21.4 18.1 9.6 47 6.4 ENE 17 20 9 11 1016.7 1016.3 0.0
24/03:00am 22.0 19.4 9.5 45 6.8 NE 13 19 7 10 1017.1 1016.7 0.0
24/02:30am 22.2 18.9 9.7 45 6.8 ENE 17 24 9 13 1016.9 1016.5 0.0
24/02:00am 23.4 19.8 9.8 42 7.5 ENE 19 24 10 13 1017.1 1016.7 0.0
24/01:30am 23.2 19.6 9.9 43 7.3 E 19 26 10 14 1017.2 1016.8 0.0
24/01:00am 22.0 19.2 8.5 42 7.2 ENE 13 15 7 8 1017.2 1016.8 0.0
24/12:30am 23.0 20.1 8.3 39 7.8 ENE 13 17 7 9 1017.4 1016.9 0.0
24/12:00am 22.5 19.8 7.5 38 7.9 E 11 13 6 7 1017.2 1016.8 0.0
 
Date/Time
EDT
Temp
°C
App
Temp
°C
Dew
Point
Rel
Hum
%
Delta-T
°C
Wind Press
QNH
hPa
Press
MSL
hPa
Rain
since 9 am
mm
Dir
 
Spd
km/h
Gust
km/h
Spd
kts
Gust
kts
23/11:30pm 23.0 20.0 7.9 38 8.0 ENE 13 20 7 11 1017.2 1016.8 0.0
23/11:00pm 22.0 22.1 10.2 47 6.5 CALM 0 0 0 0 1017.1 1016.7 0.0
23/10:30pm 22.2 21.6 11.6 51 6.0 W 6 7 3 4 1017.2 1016.8 0.0
23/10:00pm 22.9 20.9 8.6 40 7.7 ENE 9 13 5 7 1016.9 1016.5 0.0
23/09:30pm 23.5 21.5 10.2 43 7.4 ENE 11 13 6 7 1016.7 1016.3 0.0
23/09:00pm 22.7 21.2 10.5 46 6.8 E 9 9 5 5 1016.4 1015.9 0.0
23/08:30pm 24.9 24.6 8.8 36 8.8 CALM 0 0 0 0 1016.0 1015.5 0.0
23/08:00pm 25.6 25.7 10.2 38 8.6 CALM 0 0 0 0 1015.8 1015.3 0.0
23/07:30pm 28.6 28.2 8.3 28 11.2 CALM 0 0 0 0 1015.4 1014.9 0.0
23/07:00pm 30.7 29.2 6.6 22 13.0 E 4 7 2 4 1015.1 1014.6 0.0
23/06:30pm 33.4 31.9 5.0 17 15.2 W 2 6 1 3 1015.0 1014.5 0.0
23/06:00pm 32.8 29.9 4.6 17 14.9 WSW 9 15 5 8 1014.9 1014.4 0.0
23/05:30pm 33.1 30.6 6.4 19 14.6 S 9 17 5 9 1014.8 1014.3 0.0
23/05:00pm 33.2 31.1 5.7 18 14.8 SSW 6 15 3 8 1014.7 1014.2 0.0
23/04:30pm 33.2 31.1 6.5 19 14.6 WNW 7 13 4 7 1014.9 1014.4 0.0
23/04:00pm 33.1 29.6 7.1 20 14.3 WSW 15 26 8 14 1015.2 1014.7 0.0
23/03:30pm 32.7 30.1 6.1 19 14.4 SW 9 15 5 8 1015.5 1015.0 0.0
23/03:00pm 32.6 29.9 7.4 21 13.9 N 11 17 6 9 1016.0 1015.5 0.0
23/02:30pm 32.8 30.9 7.6 21 14.0 WSW 7 13 4 7 1016.5 1016.0 0.0
23/02:00pm 32.1 29.0 9.0 24 13.1 N 15 24 8 13 1017.0 1016.6 0.0
23/01:30pm 31.3 29.0 8.9 25 12.6 N 11 22 6 12 1017.6 1017.1 0.0
23/01:00pm 31.2 28.9 10.5 28 11.9 NNW 13 24 7 13 1018.0 1017.5 0.0
23/12:30pm 30.5 27.8 10.5 29 11.5 N 15 22 8 12 1018.7 1018.2 0.0
23/12:00pm 29.6 26.7 9.7 29 11.2 N 15 22 8 12 1019.3 1018.8 0.0

Other Formats:

Comma delimited format used in spreadsheet applications
http://www.bom.gov.au/fwo/IDN60801/IDN60801.95718.axf

JavaScript Object Notation format (JSON) in row-major order
http://www.bom.gov.au/fwo/IDN60801/IDN60801.95718.json